LSZCLFSD

Guest
Details From LSZC - Buochs
To LFSD - Dijon Longvic AB
Flight Number -
Tags generated
Created
Modified
Stats Distance 136 nm / 253 km
Max Altitude 16,900 ft / 5,151 m
Waypoints 3
Social Downloads 0
Likes 0
Share VATSIM

Download

Looking for another format? Having issues loading an existing format? Contact us
Advertisement - Login to hide

Notes

Basic altitude profile: - Ascent Rate: 2500ft/min - Ascent Speed: 250kts - Cruise Altitude: 35000ft - Cruise Speed: 420kts - Descent Rate: 1500ft/min - Descent Speed: 250kts Options: - Use NATs: yes - Use PACOTS: yes - Use low airways: yes - Use high airways: yes

Route

LSZC BENOT LFSD

ID Type Via Altitude Latitude Longitude Leg Dist Tot Dist Heading (true) Name
O LSZC APT - 0 ft / 0 m 46.97319˚ 8.39736˚ - 0 nm - Buochs
BENOT FIX - 16,900 ft / 5,151 m 47.05778˚ 7.17278˚ 50 nm 50 nm 276° / 275° -
O LFSD APT - 0 ft / 0 m 47.26901˚ 5.09012˚ 85 nm 136 nm 279° / 278° Dijon Longvic AB

Altitude Profile

Advertisement - Login to hide

LSZC

Details ICAO LSZC (BXO)
Name Buochs
Region Switzerland
Timezone Europe/Zurich (UTC+1.0)
Stats Elevation 1,475 ft / 450 m (AMSL)
Location 46.973188° 8.397360°
Runways 2
Magnetic Variation 2.307° E

METAR

LSZC 152120Z AUTO 24005KT 200V270 9999 OVC080 01/M03 Q1002

Decode

TAF

Not found

Departure Runways

ID Width Length Bearing (true) Bearing (mag) Surface Threshold Offset Overrun Length
07L 131 ft / 40 m 6,570 ft / 2,002 m 64.09° 61.78° Asphalt 0 ft / 0 m 650 ft / 198 m
07R 131 ft / 40 m 4,827 ft / 1,471 m 64.00° 61.69° Asphalt 0 ft / 0 m 1,161 ft / 354 m
25L 131 ft / 40 m 4,827 ft / 1,471 m 244.02° 241.71° Asphalt 0 ft / 0 m 1,161 ft / 354 m
25R 131 ft / 40 m 6,570 ft / 2,002 m 244.11° 241.80° Asphalt 0 ft / 0 m 650 ft / 198 m

LFSD

Details ICAO LFSD (DIJ)
Name Dijon Longvic AB
Region France
Timezone Europe/Paris (UTC+1.0)
Stats Elevation 726 ft / 221 m (AMSL)
Location 47.269011° 5.090116°
Runways 2
Magnetic Variation 1.448° E

METAR

LFSD 152130Z AUTO VRB02KT 9999 BKN020 BKN028 BKN047 02/01 Q1001

Decode

TAF

Not found

Destination Runways

ID Width Length Bearing (true) Bearing (mag) Surface Threshold Offset Overrun Length
02 118 ft / 36 m 6,054 ft / 1,845 m 15.20° 13.75° Asphalt 0 ft / 0 m 328 ft / 100 m
18 148 ft / 45 m 7,877 ft / 2,401 m 175.00° 173.55° Asphalt 0 ft / 0 m 1,385 ft / 422 m
20 118 ft / 36 m 6,054 ft / 1,845 m 195.20° 193.75° Asphalt 0 ft / 0 m 443 ft / 135 m
36 148 ft / 45 m 7,877 ft / 2,401 m 355.00° 353.55° Asphalt 0 ft / 0 m 1,099 ft / 335 m

Approach Navaids

Runway Type Ident Frequency Range Bearing (true) Bearing (mag) Slope Elevation
36 Localiser DJ 109.50 MHz 18 nm / 33 km 354.99° 353.54° - 728 ft / 222 m (AMSL)
36 Glidescope DJ 109.50 MHz 10 nm / 19 km 355.00° 353.55° 3.00° 728 ft / 222 m (AMSL)